Pena Blanca, New Mexico
Current Conditions -  °F | °C
As of 3:53 PM on Monday 20 Oct 2014 (Local Time) from KSAF Reporting Station
Broken Clouds Broken Clouds  
Wind Chill: 21°   Ceiling: 10000
Heat Index: 21°   Visibility: 10mi
Dew Point:   Wind: 16mph
Humidity: 33%   Direction: 260°W
Pressure: 30.15"   Gusts: NA
Location:  35.57°N, 106.34°W
Report Text: KSAF 202153Z 26014KT 10SM SCT080 BKN100 21/04 A3015 RMK AO2 WSHFT 2108 SLP134 T02060039
Loading
Personal Weather Stations






























Interactive Weather Map
Tropical Storm Tracking
New forecast layout! Learn more

10-Day Weather Forecast

Advertisements
Track Severe Weather on mobile